Meteo Giornale » Osservazioni meteo Stati Uniti (USA) » Oklahoma City Will Rogers World
ore: 07:52 - Osservazioni Meteo Oklahoma City Will Rogers World
Lat. 35° 23' N Lon. 97° 36' W Alt. 394 metri s.l.m.
24 °C
Sereno
Temp. 24 Ore
22 °C
38 °C
Sud/Sud-Est
7.4 Km/h
Dew point 16 °C
Umidità 60 %
Visibilità 10 Km
Il sole sorge alle ore 07:02
Il sole tramonta alle ore 19:57
| Data e Ora | Cielo e Fenomeni | T °C | DP °C | Um. % | Pres. hPa | Vis. km | Vento km/h | |
|---|---|---|---|---|---|---|---|---|
| Oggi h: 07:52 | Sereno | 24 | 16 | 60 | 1017 | 10 | S/SE 7.4 | |
| Oggi h: 06:52 | Sereno | 22 | 16 | 68 | 1017 | 10 | S/SE 11.1 | |
| Oggi h: 05:52 | Sereno | 22 | 15 | 64 | 1017 | 10 | S/SE 9.3 | |
| Oggi h: 04:52 | Sereno | 22 | 15 | 64 | 1017 | 10 | S 9.3 | |
| Oggi h: 03:52 | Sereno | 23 | 14 | 56 | 1016 | 10 | S/SE 9.3 | |
| Oggi h: 02:52 | Sereno | 23 | 14 | 56 | 1016 | 10 | S/SE 9.3 | |
| Oggi h: 01:52 | Sereno | 24 | 14 | 53 | 1016 | 10 | S/SE 9.3 | |
| Oggi h: 00:52 | Sereno | 25 | 14 | 50 | 1016 | 10 | S 9.3 | |
| Ieri h: 23:52 | Sereno | 26 | 14 | 47 | 1016 | 10 | S/SE 7.4 | |
| Ieri h: 22:52 | Sereno | 27 | 14 | 44 | 1016 | 10 | S 9.3 | |
| Ieri h: 21:52 | Sereno | 31 | 13 | 33 | 1015 | 10 | S/SE 16.7 | |
| Ieri h: 20:52 | Sereno | 31 | 13 | 33 | 1014 | 10 | S/SE 14.8 | |
| Ieri h: 19:52 | Sereno | 33 | 12 | 27 | 1014 | 10 | S/SE 14.8 | |
| Ieri h: 18:52 | Poco Nuvoloso | 36 | 13 | 25 | 1014 | 10 | S/SE 24 | |
| Ieri h: 17:52 | Poco Nuvoloso | 37 | 13 | 23 | 1014 | 10 | S 24 | |
| Ieri h: 16:52 | Nuvoloso | 38 | 14 | 24 | 1014 | 10 | S/SE 27.8 | |
| Ieri h: 15:52 | Nuvoloso | 38 | 14 | 24 | 1015 | 10 | E/SE 25.9 | |
| Ieri h: 14:52 | Nuvoloso | 36 | 14 | 26 | 1015 | 10 | S/SO 14.8 | |
| Ieri h: 13:52 | Nuvoloso | 38 | 15 | 25 | 1016 | 10 | S 20.3 | |
| Ieri h: 12:52 | Nuvoloso | 37 | 16 | 28 | 1016 | 10 | S 20.3 | |
| Ieri h: 11:52 | Poco Nuvoloso | 35 | 17 | 34 | 1017 | 10 | S 31.5 | |
| Ieri h: 10:52 | Poco Nuvoloso | 34 | 18 | 38 | 1017 | 10 | SO 27.8 | |
| Ieri h: 09:52 | Poco Nuvoloso | 32 | 18 | 43 | 1017 | 10 | S/SO 22.2 | |
| Ieri h: 08:52 | Poco Nuvoloso | 29 | 17 | 48 | 1017 | 10 | S 14.8 | |



